createdAt,value
2023-02-28T00:00:38.722Z,46088.22
2023-02-28T00:05:56.686Z,46098.19
2023-02-28T00:11:04.251Z,46080.22
2023-02-28T00:16:14.562Z,46056.28
2023-02-28T00:21:19.074Z,46076.25
2023-02-28T00:26:23.386Z,46082.22
2023-02-28T00:31:29.207Z,46064.25
2023-02-28T00:36:33.685Z,46094.22
2023-02-28T00:41:40.011Z,46056.28
2023-02-28T00:46:46.436Z,46100.19
2023-02-28T00:51:51.081Z,46056.28
2023-02-28T00:56:57.101Z,46096.22
2023-02-28T01:02:04.271Z,46058.25
2023-02-28T01:07:08.822Z,46068.25
2023-02-28T01:12:13.131Z,46002.34
2023-02-28T01:17:19.131Z,46056.28
2023-02-28T01:22:23.355Z,46038.28
2023-02-28T01:27:27.684Z,46000.34
2023-02-28T01:32:33.439Z,46002.34
2023-02-28T01:37:37.733Z,46020.31
2023-02-28T01:42:42.093Z,46024.31
2023-02-28T01:47:50.069Z,45984.38
2023-02-28T01:52:57.148Z,45950.44
2023-02-28T01:58:04.469Z,45986.38
2023-02-28T02:03:14.683Z,46026.31
2023-02-28T02:08:23.047Z,45996.34
2023-02-28T02:13:56.394Z,45992.38
2023-02-28T02:19:11.079Z,46026.31
2023-02-28T02:24:56.726Z,45988.38
2023-02-28T02:30:37.045Z,45990.38
2023-02-28T02:35:51.999Z,45966.41
2023-02-28T02:41:08.704Z,45970.41
2023-02-28T02:46:17.738Z,45972.41
2023-02-28T02:51:26.429Z,45958.41
2023-02-28T02:56:34.120Z,45942.44
2023-02-28T03:01:41.896Z,45924.47
2023-02-28T03:06:47.550Z,45870.56
2023-02-28T03:11:54.794Z,45918.47
2023-02-28T03:17:13.962Z,45936.44
2023-02-28T03:23:05.360Z,45930.47
2023-02-28T03:28:16.688Z,45902.50
2023-02-28T03:33:25.932Z,45906.50
2023-02-28T03:38:36.532Z,45866.56
2023-02-28T03:43:45.460Z,45872.56
2023-02-28T03:48:54.046Z,45882.53
2023-02-28T03:54:06.431Z,45858.56
2023-02-28T03:59:17.742Z,45838.59
2023-02-28T04:04:21.999Z,45864.56
2023-02-28T04:09:27.806Z,45814.66
2023-02-28T04:14:32.096Z,45842.59
2023-02-28T04:19:36.230Z,45816.63
2023-02-28T04:24:44.098Z,45794.69
2023-02-28T04:29:48.470Z,45778.69
2023-02-28T04:34:52.819Z,45756.72
2023-02-28T04:39:58.982Z,45788.69
2023-02-28T04:45:03.815Z,45758.72
2023-02-28T04:50:09.149Z,45758.72
2023-02-28T04:55:15.066Z,45718.78
2023-02-28T05:00:20.254Z,45718.78
2023-02-28T05:05:24.440Z,45742.75
2023-02-28T05:10:30.928Z,45702.81
2023-02-28T05:15:35.800Z,45654.91
2023-02-28T05:20:40.490Z,45686.84
2023-02-28T05:25:46.247Z,45654.91
2023-02-28T05:30:50.797Z,45630.94
2023-02-28T05:35:55.292Z,45618.97
2023-02-28T05:41:01.059Z,45577.03
2023-02-28T05:46:07.297Z,45569.03
2023-02-28T05:51:12.061Z,45551.06
2023-02-28T05:56:17.780Z,45557.06
2023-02-28T06:01:32.728Z,45539.09
2023-02-28T06:06:38.124Z,45563.06
2023-02-28T06:11:45.120Z,45509.13
2023-02-28T06:16:49.717Z,45461.22
2023-02-28T06:21:54.963Z,45467.22
2023-02-28T06:27:06.342Z,45485.19
2023-02-28T06:32:10.772Z,45541.09
2023-02-28T06:37:15.027Z,45541.09
2023-02-28T06:42:21.310Z,45591.00
2023-02-28T06:47:25.909Z,45604.97
2023-02-28T06:52:30.568Z,45654.91
2023-02-28T06:57:37.335Z,45610.97
2023-02-28T07:02:41.727Z,45654.91
2023-02-28T07:07:48.094Z,45557.06
2023-02-28T07:12:53.660Z,45545.06
2023-02-28T07:17:58.678Z,45630.94
2023-02-28T07:23:03.178Z,45698.81
2023-02-28T07:28:09.074Z,45854.59
2023-02-28T07:33:13.320Z,45814.66
2023-02-28T07:38:17.762Z,46104.19
2023-02-28T07:43:23.638Z,46222.03
2023-02-28T07:48:27.945Z,46249.97
2023-02-28T07:53:32.572Z,46297.91
2023-02-28T07:58:39.472Z,46305.91
2023-02-28T08:03:43.708Z,46335.84
2023-02-28T08:08:48.169Z,46365.81
2023-02-28T08:13:53.880Z,46397.75
2023-02-28T08:18:58.405Z,46491.63
2023-02-28T08:24:02.534Z,46509.59
2023-02-28T08:29:08.367Z,46455.69
2023-02-28T08:34:15.539Z,46473.66
2023-02-28T08:39:21.222Z,46491.63
2023-02-28T08:44:26.754Z,46509.59
2023-02-28T08:49:31.350Z,46521.59
2023-02-28T08:54:35.603Z,46455.69
2023-02-28T08:59:41.168Z,46433.72
2023-02-28T09:04:46.538Z,46505.59
2023-02-28T09:09:56.728Z,46489.63
2023-02-28T09:15:02.386Z,46497.63
2023-02-28T09:20:07.826Z,46409.75
2023-02-28T09:25:12.347Z,46447.69
2023-02-28T09:30:18.717Z,46453.69
2023-02-28T09:35:24.039Z,46551.53
2023-02-28T09:40:28.929Z,46533.56
2023-02-28T09:45:39.109Z,46557.53
2023-02-28T09:50:48.293Z,46473.66
2023-02-28T09:55:57.204Z,46495.63
2023-02-28T10:01:08.029Z,46515.59
2023-02-28T10:06:19.360Z,46535.56
2023-02-28T10:11:25.149Z,46513.59
2023-02-28T10:16:35.927Z,46485.63
2023-02-28T10:21:45.384Z,46599.47
2023-02-28T10:26:50.831Z,46517.59
2023-02-28T10:31:57.175Z,46471.66
2023-02-28T10:37:08.511Z,46409.75
2023-02-28T10:42:26.889Z,46283.94
2023-02-28T10:47:34.328Z,46401.75
2023-02-28T10:52:42.004Z,46365.81
2023-02-28T10:57:46.149Z,46287.91
2023-02-28T11:02:51.821Z,46265.97
2023-02-28T11:07:57.942Z,46353.81
2023-02-28T11:27:28.057Z,46457.69
2023-02-28T11:32:33.642Z,46437.72
2023-02-28T11:37:38.785Z,46361.81
2023-02-28T11:43:06.505Z,46269.94
2023-02-28T11:48:21.068Z,46365.81
2023-02-28T11:53:46.045Z,46325.88
2023-02-28T11:59:05.039Z,46333.84
2023-02-28T12:04:29.488Z,46299.91
2023-02-28T12:09:55.214Z,46361.81
2023-02-28T12:15:19.527Z,46351.81
2023-02-28T12:20:34.690Z,46357.81
2023-02-28T12:25:57.488Z,46397.75
2023-02-28T12:31:08.050Z,46417.72
2023-02-28T12:36:18.722Z,46353.81
2023-02-28T12:41:29.634Z,46351.81
2023-02-28T12:46:41.388Z,46353.81
2023-02-28T12:51:47.097Z,46353.81
2023-02-28T12:57:01.362Z,46371.81
2023-02-28T13:02:40.825Z,46367.81
2023-02-28T13:08:18.263Z,46381.78
2023-02-28T13:13:25.621Z,46385.78
2023-02-28T13:18:38.074Z,46397.75
2023-02-28T13:23:59.729Z,46351.81
2023-02-28T13:29:06.648Z,46397.75
2023-02-28T13:34:18.982Z,46415.75
2023-02-28T13:39:48.390Z,46411.75
2023-02-28T13:45:24.711Z,46393.78
2023-02-28T13:50:39.064Z,46409.75
2023-02-28T13:55:49.405Z,46377.78
2023-02-28T14:01:10.751Z,46409.75
2023-02-28T14:06:29.074Z,46387.78
2023-02-28T14:11:36.630Z,46317.88
2023-02-28T14:16:46.139Z,46373.78
2023-02-28T14:22:07.495Z,46449.69
2023-02-28T14:27:38.641Z,46409.75
2023-02-28T14:32:50.196Z,46345.84
2023-02-28T14:37:56.813Z,46377.78
2023-02-28T14:43:02.533Z,46381.78
2023-02-28T14:48:11.314Z,46415.75
2023-02-28T14:53:22.608Z,46445.69
2023-02-28T14:58:29.920Z,46465.66
2023-02-28T15:03:35.929Z,46495.63
2023-02-28T15:08:41.767Z,46473.66
2023-02-28T15:13:50.195Z,46505.59
2023-02-28T15:18:56.875Z,46491.63
2023-02-28T15:24:07.286Z,46525.59
2023-02-28T15:29:17.166Z,46519.59
2023-02-28T15:34:26.439Z,46525.59
2023-02-28T15:39:43.810Z,46649.41
2023-02-28T15:44:48.518Z,46631.44
2023-02-28T15:49:55.831Z,46663.38
2023-02-28T15:55:09.200Z,46663.38
2023-02-28T16:00:16.152Z,46661.41
2023-02-28T16:05:31.763Z,46659.41
2023-02-28T16:10:37.701Z,46657.41
2023-02-28T16:15:45.260Z,46663.38
2023-02-28T16:20:49.868Z,46699.34
2023-02-28T16:25:55.635Z,46667.38
2023-02-28T16:31:02.859Z,46671.38
2023-02-28T16:36:08.921Z,46697.34
2023-02-28T16:41:20.050Z,46667.38
2023-02-28T16:46:24.323Z,46729.31
2023-02-28T16:51:29.236Z,46729.31
2023-02-28T16:56:36.396Z,46669.38
2023-02-28T17:01:40.873Z,46637.44
2023-02-28T17:06:45.383Z,46675.38
2023-02-28T17:11:51.140Z,46673.38
2023-02-28T17:16:55.384Z,46695.34
2023-02-28T17:22:00.365Z,46677.38
2023-02-28T17:27:06.174Z,46683.38
2023-02-28T17:32:17.912Z,46685.38
2023-02-28T17:37:23.028Z,46665.38
2023-02-28T17:42:28.746Z,46693.34
2023-02-28T17:47:33.300Z,46677.38
2023-02-28T17:52:37.885Z,46709.31
2023-02-28T17:57:44.234Z,46713.31
2023-02-28T18:02:48.653Z,46677.38
2023-02-28T18:07:53.647Z,46727.31
2023-02-28T18:12:59.637Z,46735.28
2023-02-28T18:18:04.968Z,46705.34
2023-02-28T18:23:10.721Z,46741.28
2023-02-28T18:28:16.607Z,46659.41
2023-02-28T18:33:21.486Z,46659.41
2023-02-28T18:38:26.155Z,46643.41
2023-02-28T18:43:35.344Z,46645.41
2023-02-28T18:48:39.920Z,46649.41
2023-02-28T18:53:45.197Z,46641.41
2023-02-28T18:58:50.910Z,46665.38
2023-02-28T19:03:55.498Z,46629.44
2023-02-28T19:09:01.784Z,46601.47
2023-02-28T19:14:09.579Z,46609.47
2023-02-28T19:19:14.179Z,46599.47
2023-02-28T19:24:20.314Z,46581.50
2023-02-28T19:29:25.979Z,46581.50
2023-02-28T19:34:30.589Z,46573.50
2023-02-28T19:39:41.686Z,46571.53
2023-02-28T19:44:47.790Z,46577.50
2023-02-28T19:49:54.923Z,46557.53
2023-02-28T19:54:59.526Z,46547.56
2023-02-28T20:00:06.032Z,46531.56
2023-02-28T20:05:16.516Z,46539.56
2023-02-28T20:10:21.746Z,46541.56
2023-02-28T20:15:28.953Z,46541.56
2023-02-28T20:20:36.555Z,46513.59
2023-02-28T20:25:41.892Z,46501.63
2023-02-28T20:30:49.862Z,46497.63
2023-02-28T20:36:00.583Z,46501.63
2023-02-28T20:41:06.025Z,46493.63
2023-02-28T20:46:12.187Z,46477.66
2023-02-28T20:51:17.376Z,46479.66
2023-02-28T20:56:23.928Z,46489.63
2023-02-28T21:01:31.191Z,46497.63
2023-02-28T21:06:37.748Z,46453.69
2023-02-28T21:11:44.077Z,46473.66
2023-02-28T21:16:49.668Z,46449.69
2023-02-28T21:21:56.525Z,46475.66
2023-02-28T21:27:02.328Z,46429.72
2023-02-28T21:32:08.640Z,46445.69
2023-02-28T21:37:12.864Z,46435.72
2023-02-28T21:42:17.413Z,46449.69
2023-02-28T21:47:23.243Z,46429.72
2023-02-28T21:52:27.754Z,46421.72
2023-02-28T21:57:32.373Z,46395.75
2023-02-28T22:02:38.537Z,46385.78
2023-02-28T22:07:43.069Z,46405.75
2023-02-28T22:12:47.188Z,46353.81
2023-02-28T22:17:53.130Z,46343.84
2023-02-28T22:22:57.469Z,46373.78
2023-02-28T22:28:01.608Z,46353.81
2023-02-28T22:33:07.197Z,46311.88
2023-02-28T22:38:11.657Z,46337.84
2023-02-28T22:43:15.990Z,46315.88
2023-02-28T22:48:22.127Z,46327.88
2023-02-28T22:53:26.421Z,46313.88
2023-02-28T22:58:31.482Z,46289.91
2023-02-28T23:03:37.412Z,46287.91
2023-02-28T23:08:41.850Z,46216.03
2023-02-28T23:13:58.733Z,46182.06
2023-02-28T23:19:06.413Z,46120.16
2023-02-28T23:24:12.081Z,46062.25
2023-02-28T23:29:18.996Z,46078.22
2023-02-28T23:34:26.652Z,46034.31
2023-02-28T23:39:31.688Z,46016.31
2023-02-28T23:44:36.188Z,46032.31
2023-02-28T23:49:41.850Z,46002.34
2023-02-28T23:54:46.967Z,46048.28
2023-02-28T23:59:51.181Z,46060.25
